EBBN weather

Büllingen ULM
Büllingen, Liège, Belgium

Public forecast

Using degrees Celsius for public forecast. Weather courtesy of forecast.io.

METAR (pilot weather report)

Closest report is Elsenborn Air Base, 5.4 nm (10.0 km) NW. Retrieved 2019/04/21 07:25 UTC (33 minutes ago):

EBLB 210725Z AUTO 09003KT 9999 NCD 17/03 Q1022 BLU

TAF (pilot weather forecast)

Forecast is more than 12 hours old.

Closest forecast is Elsenborn Air Base, 5.4 nm (10.0 km) NW. Retrieved 2012/06/26 19:39 UTC (7 years ago):

TAF EBLB 261541Z 2619/2707 24005KT 9999 SCT020 BECMG 2623/2701 SCT010 SCT020 BECMG 2703/2705 22009KT 5000 BR SCT004 SCT007 BKN015 PROB40 TEMPO 2703/2707 2000 -SHRA SCT002 BKN003 BKN010